Time;durP1;ratioP1;P1;durP2;ratioP2;P2;SDS_P1;SDS_P2;PMS_P1;PMS_P2;Temp;Humidity;BMP_temperature;BMP_pressure;BME280_temperature;BME280_humidity;BME280_pressure;Samples;Min_cycle;Max_cycle;Signal;HPM_P1;HPM_P2
2024/03/23 00:01:11;;;;;;;27.55;5.80;;;;;;;5.47;100.00;101254.53;5089832;28;20110;-76
2024/03/23 00:03:38;;;;;;;21.27;5.10;;;;;;;5.47;100.00;101251.91;5090051;28;20034;-77
2024/03/23 00:06:05;;;;;;;27.48;5.60;;;;;;;5.52;100.00;101254.25;5091317;28;20103;-76
2024/03/23 00:08:31;;;;;;;31.17;4.88;;;;;;;5.57;100.00;101254.81;5093847;28;20026;-76
2024/03/23 00:10:57;;;;;;;17.52;5.05;;;;;;;5.62;100.00;101249.25;5093732;28;20016;-77
2024/03/23 00:13:24;;;;;;;28.70;5.03;;;;;;;5.68;100.00;101253.28;5093776;28;20020;-76
2024/03/23 00:15:50;;;;;;;26.20;4.57;;;;;;;5.74;100.00;101255.53;5074922;28;20384;-77
2024/03/23 00:18:17;;;;;;;21.13;4.55;;;;;;;5.78;100.00;101252.59;5093840;28;20085;-76
2024/03/23 00:20:43;;;;;;;19.63;4.85;;;;;;;5.80;100.00;101253.34;5093395;28;20114;-76
2024/03/23 00:23:10;;;;;;;24.63;4.75;;;;;;;5.81;100.00;101254.22;5093628;28;20023;-77
2024/03/23 00:25:37;;;;;;;22.27;4.88;;;;;;;5.81;100.00;101252.41;5093508;28;20012;-78
2024/03/23 00:28:03;;;;;;;17.60;4.20;;;;;;;5.83;100.00;101247.03;5093682;28;20366;-77
2024/03/23 00:30:30;;;;;;;24.00;4.05;;;;;;;5.85;100.00;101241.66;5075395;28;20024;-79
2024/03/23 00:32:56;;;;;;;18.40;3.22;;;;;;;5.84;100.00;101230.25;5093415;28;20024;-78
2024/03/23 00:35:22;;;;;;;20.00;3.83;;;;;;;5.82;100.00;101233.00;5093378;28;20115;-77
2024/03/23 00:37:49;;;;;;;23.15;3.50;;;;;;;5.79;100.00;101233.19;5074554;28;20031;-77
2024/03/23 00:40:15;;;;;;;29.40;4.30;;;;;;;5.74;100.00;101224.69;5093360;28;20024;-77
2024/03/23 00:42:42;;;;;;;19.55;3.28;;;;;;;5.71;100.00;101222.25;5092819;28;20088;-77
2024/03/23 00:45:08;;;;;;;14.93;3.50;;;;;;;5.64;100.00;101213.03;5074713;28;20156;-77
2024/03/23 00:47:35;;;;;;;17.23;2.92;;;;;;;5.54;100.00;101212.78;5092661;28;20051;-77
2024/03/23 00:50:01;;;;;;;16.05;2.97;;;;;;;5.47;100.00;101212.31;5092748;28;20020;-77
2024/03/23 00:52:27;;;;;;;16.73;3.75;;;;;;;5.41;100.00;101209.22;5092915;28;20020;-77
2024/03/23 00:54:53;;;;;;;20.35;2.95;;;;;;;5.36;100.00;101203.38;5092557;28;20032;-77
2024/03/23 00:57:18;;;;;;;13.20;2.33;;;;;;;5.30;100.00;101200.19;5092439;28;20466;-77
2024/03/23 00:59:43;;;;;;;25.25;2.38;;;;;;;5.26;100.00;101197.84;5074515;28;20047;-77
2024/03/23 01:02:09;;;;;;;20.15;3.63;;;;;;;5.18;100.00;101194.81;5092511;28;20463;-77
2024/03/23 01:04:34;;;;;;;14.88;2.00;;;;;;;5.07;100.00;101183.13;5073981;28;20317;-78
2024/03/23 01:06:59;;;;;;;22.92;3.33;;;;;;;4.97;100.00;101186.44;5092763;28;20097;-77
2024/03/23 01:09:25;;;;;;;12.05;2.20;;;;;;;4.89;100.00;101181.63;5074354;28;20081;-77
2024/03/23 01:11:50;;;;;;;14.13;3.10;;;;;;;4.82;100.00;101177.69;5092472;28;20065;-77
2024/03/23 01:14:15;;;;;;;12.90;2.60;;;;;;;4.80;100.00;101177.78;5092297;28;20028;-77
2024/03/23 01:16:41;;;;;;;11.55;2.92;;;;;;;4.80;100.00;101176.94;5092237;28;20428;-77
2024/03/23 01:19:06;;;;;;;15.23;2.63;;;;;;;4.76;100.00;101169.22;5091300;28;20420;-77
2024/03/23 01:21:31;;;;;;;15.32;3.33;;;;;;;4.69;100.00;101175.78;5092498;28;20024;-77
2024/03/23 01:23:57;;;;;;;17.75;2.28;;;;;;;4.65;100.00;101176.91;5092093;28;20111;-76
2024/03/23 01:26:22;;;;;;;16.48;2.55;;;;;;;4.66;100.00;101175.97;5073957;28;20028;-77
2024/03/23 01:28:47;;;;;;;12.85;2.15;;;;;;;4.68;100.00;101179.34;5092193;28;20432;-77
2024/03/23 01:31:13;;;;;;;14.30;2.88;;;;;;;4.64;100.00;101182.28;5092068;28;20470;-76
2024/03/23 01:33:38;;;;;;;14.15;3.22;;;;;;;4.53;100.00;101172.38;5092142;28;20020;-77
2024/03/23 01:36:03;;;;;;;19.08;2.50;;;;;;;4.41;100.00;101180.06;5092088;28;20036;-77
2024/03/23 01:38:29;;;;;;;16.70;2.80;;;;;;;4.37;100.00;101169.81;5091963;28;20030;-76
2024/03/23 01:40:57;;;;;;;10.98;2.15;;;;;;;4.35;100.00;101169.06;5091963;28;20103;-77
2024/03/23 01:43:23;;;;;;;13.10;3.10;;;;;;;4.36;100.00;101165.47;5092029;28;20031;-77
2024/03/23 01:45:48;;;;;;;16.38;2.20;;;;;;;4.36;100.00;101160.19;5091749;28;20023;-77
2024/03/23 01:48:13;;;;;;;16.40;2.85;;;;;;;4.40;100.00;101164.34;5092032;28;20024;-77
2024/03/23 01:50:39;;;;;;;14.13;2.55;;;;;;;4.38;100.00;101158.34;5091631;28;20500;-80
2024/03/23 01:53:06;;;;;;;18.95;2.38;;;;;;;4.38;100.00;101156.53;5091756;28;20035;-77
2024/03/23 01:55:32;;;;;;;12.02;2.03;;;;;;;4.40;100.00;101151.19;5091727;28;20110;-77
2024/03/23 01:57:58;;;;;;;13.23;2.58;;;;;;;4.43;100.00;101152.78;5073204;28;20082;-77
2024/03/23 02:00:24;;;;;;;12.45;2.20;;;;;;;4.45;100.00;101151.78;5091663;28;20028;-77
2024/03/23 02:02:49;;;;;;;12.63;2.38;;;;;;;4.49;100.00;101149.78;5092027;28;20138;-78
2024/03/23 02:05:14;;;;;;;16.17;3.15;;;;;;;4.58;100.00;101151.84;5092090;28;20024;-77
2024/03/23 02:07:41;;;;;;;15.02;2.58;;;;;;;4.64;100.00;101150.66;5091842;28;20184;-77
2024/03/23 02:10:07;;;;;;;10.15;2.30;;;;;;;4.64;100.00;101148.84;5091713;28;20024;-77
2024/03/23 02:12:34;;;;;;;17.52;2.92;;;;;;;4.58;100.00;101147.47;5091972;28;20020;-78
2024/03/23 02:14:59;;;;;;;17.70;2.63;;;;;;;4.52;100.00;101139.06;5091392;28;20143;-78
2024/03/23 02:17:25;;;;;;;14.05;2.40;;;;;;;4.44;100.00;101141.31;5073500;28;20068;-77
2024/03/23 02:19:50;;;;;;;21.23;2.63;;;;;;;4.40;100.00;101140.63;5091686;28;20482;-77
2024/03/23 02:22:16;;;;;;;17.08;2.83;;;;;;;4.38;100.00;101132.81;5091363;28;20329;-77
2024/03/23 02:24:42;;;;;;;19.55;1.85;;;;;;;4.39;100.00;101126.63;5091166;28;20459;-77
2024/03/23 02:27:07;;;;;;;14.73;2.00;;;;;;;4.37;100.00;101130.28;5091810;28;20461;-79
2024/03/23 02:29:32;;;;;;;12.10;2.50;;;;;;;4.36;100.00;101128.59;5091862;28;20035;-81
2024/03/23 02:31:58;;;;;;;13.18;2.50;;;;;;;4.35;100.00;101119.00;5092162;28;20024;-80
2024/03/23 02:34:24;;;;;;;10.95;2.40;;;;;;;4.31;100.00;101120.97;5092174;28;20363;-81
2024/03/23 02:36:49;;;;;;;15.93;2.13;;;;;;;4.30;100.00;101115.78;5092266;28;20412;-82
2024/03/23 02:39:15;;;;;;;14.57;2.60;;;;;;;4.39;100.00;101120.53;5092128;28;20104;-81
2024/03/23 02:41:40;;;;;;;17.13;2.58;;;;;;;4.44;100.00;101118.44;5092030;28;20020;-79
2024/03/23 02:44:06;;;;;;;13.00;2.28;;;;;;;4.47;100.00;101113.00;5091872;28;20340;-81
2024/03/23 02:46:31;;;;;;;11.93;2.35;;;;;;;4.51;100.00;101109.22;5092204;28;20072;-81
2024/03/23 02:48:57;;;;;;;13.73;1.98;;;;;;;4.54;100.00;101102.94;5091812;28;20024;-80
2024/03/23 02:51:22;;;;;;;18.17;2.38;;;;;;;4.52;100.00;101110.06;5092407;28;20091;-78
2024/03/23 02:53:48;;;;;;;11.32;2.67;;;;;;;4.46;100.00;101102.53;5091996;28;20480;-80
2024/03/23 02:56:15;;;;;;;10.85;1.95;;;;;;;4.46;100.00;101111.28;5092154;28;20031;-81
2024/03/23 02:58:41;;;;;;;14.52;2.42;;;;;;;4.48;100.00;101106.78;5092019;28;20017;-80
2024/03/23 03:01:06;;;;;;;11.00;2.30;;;;;;;4.59;100.00;101103.50;5092189;28;20044;-81
2024/03/23 03:03:32;;;;;;;17.63;2.17;;;;;;;4.69;100.00;101106.41;5091831;28;20027;-80
2024/03/23 03:05:58;;;;;;;15.07;2.42;;;;;;;4.78;100.00;101111.13;5073634;28;20034;-81
2024/03/23 03:08:23;;;;;;;12.43;1.95;;;;;;;4.88;100.00;101103.47;5092103;28;20039;-80
2024/03/23 03:10:48;;;;;;;14.43;2.13;;;;;;;4.95;100.00;101102.16;5092230;28;20030;-80
2024/03/23 03:13:14;;;;;;;14.13;2.40;;;;;;;5.03;100.00;101097.25;5091814;28;20034;-81
2024/03/23 03:15:41;;;;;;;12.10;1.92;;;;;;;5.10;100.00;101101.16;5056528;28;20044;-80
2024/03/23 03:18:06;;;;;;;20.77;2.58;;;;;;;5.12;100.00;101094.03;5091768;28;20025;-81
2024/03/23 03:20:31;;;;;;;15.60;1.98;;;;;;;5.14;100.00;101095.72;5073641;28;20038;-80
2024/03/23 03:22:57;;;;;;;9.65;1.85;;;;;;;5.11;100.00;101094.13;5091725;28;20059;-81
2024/03/23 03:25:22;;;;;;;9.40;1.90;;;;;;;5.09;100.00;101094.22;5091741;28;20056;-79
2024/03/23 03:27:47;;;;;;;9.88;2.47;;;;;;;5.08;100.00;101097.78;5091471;28;20031;-79
2024/03/23 03:30:13;;;;;;;8.20;1.98;;;;;;;5.10;100.00;101102.97;5091448;28;20028;-81
2024/03/23 03:32:38;;;;;;;11.00;2.17;;;;;;;5.05;100.00;101091.88;5091769;28;20034;-81
2024/03/23 03:35:04;;;;;;;15.05;3.13;;;;;;;4.98;100.00;101093.22;5091412;28;20122;-79
2024/03/23 03:37:30;;;;;;;13.60;2.20;;;;;;;4.90;100.00;101094.53;5091749;28;20054;-79
2024/03/23 03:39:55;;;;;;;11.05;2.22;;;;;;;4.84;100.00;101084.38;5091309;28;20017;-80
2024/03/23 03:42:20;;;;;;;10.82;2.75;;;;;;;4.76;100.00;101084.84;5094378;28;20026;-78
2024/03/23 03:44:46;;;;;;;10.40;2.17;;;;;;;4.74;100.00;101077.97;5095226;28;20510;-79
2024/03/23 03:47:11;;;;;;;13.82;2.25;;;;;;;4.82;100.00;101077.50;5095156;28;20464;-79
2024/03/23 03:49:36;;;;;;;8.25;1.70;;;;;;;4.82;100.00;101074.84;5095216;28;20440;-78
2024/03/23 03:52:02;;;;;;;12.68;1.90;;;;;;;4.81;100.00;101079.28;5095311;28;20024;-78
2024/03/23 03:54:27;;;;;;;8.07;2.00;;;;;;;4.81;100.00;101075.78;5095254;28;20491;-78
2024/03/23 03:56:53;;;;;;;9.35;2.15;;;;;;;4.81;100.00;101066.09;5095040;28;20036;-78
2024/03/23 03:59:18;;;;;;;7.35;1.90;;;;;;;4.77;100.00;101067.22;5094859;28;20028;-78
2024/03/23 04:01:43;;;;;;;13.65;1.80;;;;;;;4.71;100.00;101063.19;5095008;28;20027;-78
2024/03/23 04:04:09;;;;;;;8.90;1.60;;;;;;;4.65;100.00;101058.31;5094817;28;20158;-78
2024/03/23 04:06:34;;;;;;;10.25;1.88;;;;;;;4.64;100.00;101061.03;5094877;28;20058;-78
2024/03/23 04:08:59;;;;;;;9.30;2.25;;;;;;;4.60;100.00;101055.13;5076452;28;20242;-78
2024/03/23 04:11:25;;;;;;;18.85;3.00;;;;;;;4.57;100.00;101056.16;5094955;28;20478;-77
2024/03/23 04:13:50;;;;;;;9.15;2.08;;;;;;;4.50;100.00;101049.56;5094939;28;20515;-77
2024/03/23 04:16:30;;;;;;;14.10;2.22;;;;;;;4.46;100.00;101055.13;5094963;28;20359;-77
2024/03/23 04:18:55;;;;;;;11.60;2.30;;;;;;;4.48;100.00;101050.59;5095113;28;20136;-78
2024/03/23 04:21:22;;;;;;;11.50;2.10;;;;;;;4.47;100.00;101051.53;5094492;28;20016;-77
2024/03/23 04:23:47;;;;;;;19.70;2.85;;;;;;;4.48;100.00;101055.84;5094487;28;20069;-78
2024/03/23 04:26:13;;;;;;;10.55;2.20;;;;;;;4.50;100.00;101046.09;5094328;28;20028;-77
2024/03/23 04:28:39;;;;;;;18.25;2.30;;;;;;;4.60;100.00;101055.13;5094757;28;20024;-77
2024/03/23 04:31:05;;;;;;;17.02;3.22;;;;;;;4.64;100.00;101059.22;5094310;28;20077;-78
2024/03/23 04:33:30;;;;;;;19.88;2.45;;;;;;;4.59;100.00;101059.53;5094500;28;20408;-78
2024/03/23 04:35:56;;;;;;;15.95;2.20;;;;;;;4.54;100.00;101058.97;5094348;28;20026;-78
2024/03/23 04:38:21;;;;;;;10.40;2.15;;;;;;;4.50;100.00;101065.38;5094615;28;20414;-78
2024/03/23 04:40:57;;;;;;;11.68;2.22;;;;;;;4.62;100.00;101057.66;5094033;28;20036;-77
2024/03/23 04:43:23;;;;;;;19.58;3.67;;;;;;;4.67;100.00;101055.56;5094007;28;20039;-78
2024/03/23 04:45:49;;;;;;;20.98;2.55;;;;;;;4.70;100.00;101060.66;5076225;28;20028;-78
2024/03/23 04:48:14;;;;;;;16.95;2.58;;;;;;;4.75;100.00;101053.31;5093765;28;20020;-77
2024/03/23 04:50:40;;;;;;;10.27;2.40;;;;;;;4.82;100.00;101059.91;5093918;28;20028;-78
2024/03/23 04:53:06;;;;;;;9.32;2.70;;;;;;;4.94;100.00;101050.34;5093876;28;20024;-78
2024/03/23 04:55:32;;;;;;;16.15;3.38;;;;;;;5.01;100.00;101049.00;5094073;28;20080;-78
2024/03/23 04:57:57;;;;;;;17.77;2.55;;;;;;;5.10;100.00;101053.69;5094213;28;20140;-78
2024/03/23 05:00:23;;;;;;;17.70;2.60;;;;;;;5.20;100.00;101047.84;5093932;28;20031;-78
2024/03/23 05:02:48;;;;;;;13.23;3.13;;;;;;;5.20;100.00;101053.97;5094295;28;20028;-78
2024/03/23 05:05:14;;;;;;;18.40;2.85;;;;;;;5.20;100.00;101061.88;5094256;28;20471;-78
2024/03/23 05:07:40;;;;;;;9.45;2.67;;;;;;;5.21;100.00;101065.34;5094314;28;20028;-78
2024/03/23 05:10:10;;;;;;;21.48;3.10;;;;;;;5.21;100.00;101058.31;5094289;28;20042;-77
2024/03/23 05:12:36;;;;;;;12.32;2.85;;;;;;;5.23;100.00;101053.75;5094961;28;20031;-79
2024/03/23 05:15:03;;;;;;;13.25;2.40;;;;;;;5.23;100.00;101053.75;5093943;28;20097;-78
2024/03/23 05:17:28;;;;;;;13.95;2.90;;;;;;;5.27;100.00;101049.16;5094293;28;20136;-78
2024/03/23 05:19:53;;;;;;;11.20;2.75;;;;;;;5.26;100.00;101058.84;5094148;28;20051;-77
2024/03/23 05:22:19;;;;;;;14.88;2.65;;;;;;;5.21;100.00;101060.06;5075752;28;20047;-77
2024/03/23 05:24:45;;;;;;;14.73;3.30;;;;;;;5.13;100.00;101052.66;5059002;28;20024;-77
2024/03/23 05:27:11;;;;;;;12.32;2.38;;;;;;;5.10;100.00;101060.78;5093786;28;20073;-78
2024/03/23 05:29:36;;;;;;;13.05;2.72;;;;;;;5.09;100.00;101061.69;5094086;28;20054;-78
2024/03/23 05:32:01;;;;;;;19.30;3.50;;;;;;;5.11;100.00;101057.19;5075649;28;20417;-78
2024/03/23 05:34:28;;;;;;;15.02;2.95;;;;;;;5.07;100.00;101056.53;5094200;28;20544;-77
2024/03/23 05:36:54;;;;;;;18.95;3.20;;;;;;;5.06;100.00;101054.00;5094075;28;20020;-77
2024/03/23 05:39:22;;;;;;;17.27;2.78;;;;;;;5.03;100.00;101059.47;5093567;28;20043;-78
2024/03/23 05:41:47;;;;;;;10.52;2.55;;;;;;;4.97;100.00;101058.09;5093967;28;20028;-77
2024/03/23 05:44:12;;;;;;;11.48;2.28;;;;;;;4.93;100.00;101059.22;5093439;28;20031;-78
2024/03/23 05:46:38;;;;;;;14.60;2.70;;;;;;;4.91;100.00;101048.75;5093571;28;20024;-77
2024/03/23 05:49:03;;;;;;;11.68;3.35;;;;;;;4.88;100.00;101048.97;5075186;28;20038;-77
2024/03/23 05:51:28;;;;;;;16.02;2.97;;;;;;;4.85;100.00;101041.25;5093862;28;20034;-78
2024/03/23 05:53:54;;;;;;;17.92;2.67;;;;;;;4.89;100.00;101047.16;5093734;28;20107;-79
2024/03/23 05:56:20;;;;;;;10.25;2.17;;;;;;;4.90;100.00;101044.44;5093553;28;20020;-78
2024/03/23 05:58:46;;;;;;;19.75;3.42;;;;;;;4.90;100.00;101052.34;5093721;28;20020;-78
2024/03/23 06:01:12;;;;;;;15.80;3.10;;;;;;;4.91;100.00;101048.75;5093346;28;20097;-77
2024/03/23 06:03:38;;;;;;;12.07;2.55;;;;;;;4.94;100.00;101056.47;5074499;28;20028;-78
2024/03/23 06:06:04;;;;;;;16.73;2.42;;;;;;;4.94;100.00;101048.56;5074844;28;20443;-78
2024/03/23 06:08:29;;;;;;;11.27;1.98;;;;;;;4.92;100.00;101049.59;5092996;28;20028;-78
2024/03/23 06:10:55;;;;;;;11.02;2.70;;;;;;;4.87;100.00;101043.78;5074888;28;20073;-78
2024/03/23 06:13:24;;;;;;;15.00;2.45;;;;;;;4.85;100.00;101045.66;5074669;28;20019;-78
2024/03/23 06:15:49;;;;;;;14.00;2.13;;;;;;;4.88;100.00;101054.25;5092695;28;20158;-78
2024/03/23 06:18:15;;;;;;;19.85;3.10;;;;;;;4.91;100.00;101048.75;5092761;28;20016;-77
2024/03/23 06:20:40;;;;;;;11.90;2.42;;;;;;;4.89;100.00;101053.28;5092899;28;20028;-78
2024/03/23 06:23:06;;;;;;;13.18;2.60;;;;;;;4.90;100.00;101060.25;5092625;28;20056;-77
2024/03/23 06:25:31;;;;;;;15.40;2.20;;;;;;;4.95;100.00;101055.50;5092187;28;20020;-78
2024/03/23 06:27:58;;;;;;;10.15;2.47;;;;;;;5.03;100.00;101051.56;5092226;28;20065;-78
2024/03/23 06:30:23;;;;;;;7.97;1.90;;;;;;;5.11;100.00;101049.28;5091979;28;20111;-78
2024/03/23 06:32:48;;;;;;;14.32;2.20;;;;;;;5.19;100.00;101048.78;5092069;28;20184;-78
2024/03/23 06:35:14;;;;;;;10.18;2.20;;;;;;;5.31;100.00;101055.91;5092204;28;20024;-77
2024/03/23 06:37:40;;;;;;;12.52;2.28;;;;;;;5.44;100.00;101053.31;5091591;28;20408;-77
2024/03/23 06:40:09;;;;;;;12.48;2.63;;;;;;;5.53;100.00;101044.78;5057034;28;20027;-77
2024/03/23 06:42:35;;;;;;;15.90;2.40;;;;;;;5.60;100.00;101046.06;5091497;28;20020;-78
2024/03/23 06:45:01;;;;;;;19.08;3.08;;;;;;;5.58;100.00;101055.03;5091829;28;20164;-77
2024/03/23 06:47:26;;;;;;;12.15;2.50;;;;;;;5.52;100.00;101048.38;5091353;28;20115;-78
2024/03/23 06:49:51;;;;;;;10.90;2.38;;;;;;;5.46;100.00;101051.41;5091464;28;20039;-78
2024/03/23 06:52:17;;;;;;;14.07;1.92;;;;;;;5.43;100.00;101049.84;5073944;28;20023;-78
2024/03/23 06:54:44;;;;;;;14.85;2.67;;;;;;;5.47;100.00;101055.75;5073151;28;20016;-78
2024/03/23 06:57:10;;;;;;;21.25;4.03;;;;;;;5.52;100.00;101058.91;5091698;28;20043;-77
2024/03/23 06:59:35;;;;;;;20.10;2.38;;;;;;;5.52;100.00;101061.56;5073103;28;20020;-78
2024/03/23 07:02:00;;;;;;;6.07;2.08;;;;;;;5.41;100.00;101050.88;5091848;28;20070;-79
2024/03/23 07:04:26;;;;;;;11.95;2.65;;;;;;;5.36;100.00;101068.78;5091318;28;20134;-78
2024/03/23 07:06:51;;;;;;;20.25;2.40;;;;;;;5.39;100.00;101058.03;5073622;28;20455;-81
2024/03/23 07:09:17;;;;;;;11.23;2.78;;;;;;;5.46;100.00;101065.47;5091506;28;20024;-77
2024/03/23 07:11:42;;;;;;;16.42;2.95;;;;;;;5.56;100.00;101054.31;5091405;28;20427;-79
2024/03/23 07:14:07;;;;;;;11.15;2.30;;;;;;;5.67;100.00;101067.63;5091306;28;20178;-78
2024/03/23 07:16:33;;;;;;;10.90;2.03;;;;;;;5.77;100.00;101055.50;5093122;28;20177;-77
2024/03/23 07:18:58;;;;;;;17.52;2.67;;;;;;;5.82;100.00;101058.69;5095398;28;20410;-78
2024/03/23 07:21:24;;;;;;;8.52;2.13;;;;;;;5.84;100.00;101053.31;5095336;28;20489;-78
2024/03/23 07:23:49;;;;;;;13.60;2.58;;;;;;;5.84;100.00;101058.59;5095860;28;20032;-78
2024/03/23 07:26:14;;;;;;;13.50;2.53;;;;;;;5.83;100.00;101063.00;5095618;28;20023;-77
2024/03/23 07:28:43;;;;;;;12.18;2.63;;;;;;;5.75;100.00;101061.84;5094982;28;20455;-77
2024/03/23 07:31:14;;;;;;;7.68;2.10;;;;;;;5.67;100.00;101061.50;5095108;28;20089;-78
2024/03/23 07:33:48;;;;;;;12.65;2.10;;;;;;;5.68;100.00;101064.03;5095333;28;20016;-77
2024/03/23 07:36:14;;;;;;;14.13;2.33;;;;;;;5.81;100.00;101064.09;5095044;28;20031;-78
2024/03/23 07:38:45;;;;;;;15.95;1.90;;;;;;;5.97;100.00;101053.34;5094997;28;20016;-77
2024/03/23 07:41:30;;;;;;;13.07;2.58;;;;;;;6.04;100.00;101064.34;5076543;28;20381;-76
2024/03/23 07:43:55;;;;;;;11.23;2.50;;;;;;;6.03;100.00;101062.66;5095164;28;20024;-76
2024/03/23 07:46:21;;;;;;;15.85;2.33;;;;;;;6.10;100.00;101053.38;5077073;28;20031;-76
2024/03/23 07:48:47;;;;;;;10.60;2.17;;;;;;;6.40;100.00;101053.03;5076705;28;20310;-76
2024/03/23 07:51:21;;;;;;;11.10;2.47;;;;;;;6.70;100.00;101049.19;5095128;28;20064;-75
2024/03/23 07:53:48;;;;;;;14.63;2.63;;;;;;;6.62;100.00;101043.63;5094728;28;20024;-75
2024/03/23 07:56:18;;;;;;;11.90;2.40;;;;;;;6.41;100.00;101045.97;5094944;28;20032;-75
2024/03/23 07:58:45;;;;;;;15.80;2.30;;;;;;;6.47;100.00;101051.66;5095114;28;20046;-77
2024/03/23 08:01:11;;;;;;;12.48;2.17;;;;;;;6.60;100.00;101051.66;5094642;28;20016;-77
2024/03/23 08:03:38;;;;;;;10.35;2.20;;;;;;;6.60;100.00;101053.44;5094571;28;20032;-78
2024/03/23 08:06:24;;;;;;;14.45;2.33;;;;;;;6.42;100.00;101050.28;5094588;28;20028;-79
2024/03/23 08:09:01;;;;;;;13.55;2.92;;;;;;;6.15;100.00;101054.75;5094966;28;20028;-76
2024/03/23 08:11:27;;;;;;;12.18;2.55;;;;;;;6.12;100.00;101047.03;5095159;28;20016;-76
2024/03/23 08:13:53;;;;;;;25.23;2.60;;;;;;;6.29;100.00;101055.59;5095612;28;20028;-75
2024/03/23 08:16:19;;;;;;;10.32;2.10;;;;;;;6.39;100.00;101058.44;5095658;28;20051;-74
2024/03/23 08:18:44;;;;;;;10.80;2.47;;;;;;;6.59;100.00;101041.19;5095038;28;20012;-76
2024/03/23 08:21:10;;;;;;;12.88;2.25;;;;;;;6.64;100.00;101042.56;5094962;28;20031;-77
2024/03/23 08:23:38;;;;;;;19.60;2.78;;;;;;;6.61;100.00;101048.03;5094861;28;20030;-78
2024/03/23 08:26:06;;;;;;;12.40;2.08;;;;;;;6.55;100.00;101047.66;5077235;28;20026;-76
2024/03/23 08:28:32;;;;;;;9.27;2.10;;;;;;;6.83;100.00;101049.19;5094351;28;20032;-75
2024/03/23 08:31:01;;;;;;;15.93;2.22;;;;;;;7.33;100.00;101047.31;5094721;28;20034;-76
2024/03/23 08:33:26;;;;;;;12.38;2.33;;;;;;;7.56;100.00;101053.53;5094807;28;20024;-77
2024/03/23 08:35:58;;;;;;;13.48;2.45;;;;;;;7.83;100.00;101047.13;5094832;28;20111;-75
2024/03/23 08:38:25;;;;;;;15.25;2.70;;;;;;;7.72;100.00;101042.66;5094938;28;20027;-76
2024/03/23 08:41:03;;;;;;;7.80;2.05;;;;;;;7.47;100.00;101048.94;5094549;28;20513;-77
2024/03/23 08:43:29;;;;;;;18.80;2.78;;;;;;;7.29;100.00;101034.41;5076523;28;20348;-78
2024/03/23 08:46:06;;;;;;;10.70;2.38;;;;;;;7.27;100.00;101042.47;5094228;28;20085;-75
2024/03/23 08:48:33;;;;;;;15.43;2.80;;;;;;;7.44;100.00;101045.69;5094453;28;20047;-75
2024/03/23 08:51:11;;;;;;;14.30;3.08;;;;;;;7.89;100.00;101051.97;5094833;28;20364;-77
2024/03/23 08:53:40;;;;;;;24.52;3.60;;;;;;;8.55;100.00;101046.03;5094700;28;20035;-77
2024/03/23 08:56:06;;;;;;;9.38;2.22;;;;;;;8.64;100.00;101050.66;5094300;28;20042;-77
2024/03/23 08:58:32;;;;;;;9.95;2.13;;;;;;;8.86;100.00;101040.97;5094592;28;20016;-78
2024/03/23 09:01:04;;;;;;;9.15;1.92;;;;;;;8.58;100.00;101051.13;5094248;28;20413;-77
2024/03/23 09:03:29;;;;;;;10.05;2.20;;;;;;;8.56;100.00;101049.56;5094306;28;20012;-79
2024/03/23 09:05:55;;;;;;;13.32;2.60;;;;;;;8.59;100.00;101047.50;5094057;28;20027;-74
2024/03/23 09:08:21;;;;;;;10.98;1.95;;;;;;;9.30;100.00;101047.16;5094029;28;20521;-76
2024/03/23 09:10:47;;;;;;;16.58;2.10;;;;;;;10.52;100.00;101049.38;5094071;28;20024;-75
2024/03/23 09:13:12;;;;;;;10.48;1.90;;;;;;;11.83;100.00;101043.81;5094092;28;20030;-74
2024/03/23 09:15:49;;;;;;;16.52;2.60;;;;;;;12.43;100.00;101052.56;5093802;28;20055;-77
2024/03/23 09:18:14;;;;;;;6.38;1.88;;;;;;;11.26;100.00;101054.34;5094215;28;20016;-77
2024/03/23 09:20:40;;;;;;;15.32;2.20;;;;;;;10.71;100.00;101052.13;5094245;28;20103;-76
2024/03/23 09:23:05;;;;;;;14.18;2.53;;;;;;;9.66;100.00;101045.06;5094036;28;20130;-76
2024/03/23 09:25:30;;;;;;;11.88;1.95;;;;;;;9.20;100.00;101050.69;5093826;28;20034;-76
2024/03/23 09:27:56;;;;;;;12.48;2.38;;;;;;;9.78;100.00;101045.84;5093688;28;20066;-77
2024/03/23 09:30:21;;;;;;;19.40;2.47;;;;;;;11.77;100.00;101043.56;5093796;28;20128;-76
2024/03/23 09:32:48;;;;;;;7.50;1.80;;;;;;;13.20;100.00;101035.28;5093719;28;20175;-76
2024/03/23 09:35:13;;;;;;;17.63;1.98;;;;;;;12.81;100.00;101048.91;5093877;28;20095;-76
2024/03/23 09:37:41;;;;;;;9.00;2.00;;;;;;;11.00;100.00;101051.38;5093836;28;20051;-77
2024/03/23 09:40:11;;;;;;;7.38;2.00;;;;;;;9.42;100.00;101052.41;5092930;28;20027;-75
2024/03/23 09:42:37;;;;;;;9.85;1.98;;;;;;;8.54;100.00;101057.63;5093925;28;20051;-75
2024/03/23 09:45:05;;;;;;;14.88;2.20;;;;;;;7.87;100.00;101063.66;5093599;28;20491;-75
2024/03/23 09:47:31;;;;;;;10.73;2.30;;;;;;;8.02;100.00;101057.19;5093434;28;20106;-76
2024/03/23 09:49:56;;;;;;;22.52;2.60;;;;;;;8.31;100.00;101051.44;5093483;28;20447;-75
2024/03/23 09:52:21;;;;;;;9.25;1.90;;;;;;;7.97;100.00;101045.25;5093621;28;20107;-76
2024/03/23 09:54:47;;;;;;;12.02;2.35;;;;;;;7.95;100.00;101048.84;5075284;28;20463;-77
2024/03/23 09:57:12;;;;;;;14.30;2.20;;;;;;;7.58;100.00;101043.69;5093489;28;20064;-76
2024/03/23 09:59:37;;;;;;;15.85;2.25;;;;;;;7.41;100.00;101049.38;5075530;28;20073;-76
2024/03/23 10:02:04;;;;;;;11.23;2.20;;;;;;;7.15;100.00;101056.59;5093406;28;20028;-76
2024/03/23 10:04:42;;;;;;;11.65;2.15;;;;;;;8.42;100.00;101048.81;5093283;28;20024;-75
2024/03/23 10:07:19;;;;;;;8.80;1.90;;;;;;;8.77;100.00;101039.88;5093105;28;20058;-75
2024/03/23 10:09:45;;;;;;;11.00;2.25;;;;;;;8.60;100.00;101043.06;5093554;28;20051;-80
2024/03/23 10:12:13;;;;;;;21.05;3.13;;;;;;;8.86;100.00;101045.44;5093225;28;20110;-76
2024/03/23 10:14:39;;;;;;;15.88;2.25;;;;;;;9.32;100.00;101050.50;5093161;28;20056;-76
2024/03/23 10:17:19;;;;;;;11.73;2.13;;;;;;;9.58;100.00;101028.09;5093018;28;20027;-74
2024/03/23 10:19:45;;;;;;;7.75;1.88;;;;;;;9.78;100.00;101051.19;5093574;28;20026;-76
2024/03/23 10:22:18;;;;;;;17.73;2.53;;;;;;;10.66;100.00;101038.38;5093453;28;20051;-76
2024/03/23 10:24:44;;;;;;;9.80;2.25;;;;;;;11.65;100.00;101045.53;5093187;28;20035;-76
2024/03/23 10:27:09;;;;;;;11.98;1.98;;;;;;;12.67;100.00;101044.91;5074602;28;20452;-77
2024/03/23 10:29:34;;;;;;;14.25;2.40;;;;;;;12.89;100.00;101048.16;5074635;28;20054;-77
2024/03/23 10:32:14;;;;;;;13.30;2.30;;;;;;;11.87;100.00;101039.06;5092737;28;20028;-76
2024/03/23 10:34:39;;;;;;;16.00;2.83;;;;;;;11.58;100.00;101045.25;5092929;28;20052;-78
2024/03/23 10:37:05;;;;;;;13.70;2.45;;;;;;;11.00;100.00;101032.75;5092638;28;20404;-80
2024/03/23 10:39:36;;;;;;;14.02;2.50;;;;;;;10.73;100.00;101034.22;5092663;28;20028;-78
2024/03/23 10:42:03;;;;;;;15.45;2.80;;;;;;;11.79;100.00;101034.47;5092635;28;20027;-79
2024/03/23 10:44:30;;;;;;;8.48;1.80;;;;;;;10.95;100.00;101034.97;5092589;28;20158;-77
2024/03/23 10:46:59;;;;;;;9.30;2.03;;;;;;;10.30;100.00;101024.63;5074376;28;20032;-80
2024/03/23 10:49:32;;;;;;;11.25;2.60;;;;;;;9.93;100.00;101027.78;5092941;28;20468;-79
2024/03/23 10:51:59;;;;;;;7.43;2.10;;;;;;;10.17;100.00;101027.50;5092878;28;20036;-79
2024/03/23 10:54:27;;;;;;;12.90;2.15;;;;;;;10.21;100.00;101041.34;5074612;28;20020;-78
2024/03/23 10:56:59;;;;;;;9.52;2.22;;;;;;;10.70;100.00;101025.63;5092822;28;20020;-78
2024/03/23 10:59:26;;;;;;;15.15;2.42;;;;;;;9.76;100.00;101028.34;5092633;28;20157;-79
2024/03/23 11:01:56;;;;;;;9.00;2.15;;;;;;;9.38;100.00;101022.63;5074396;28;20583;-81
2024/03/23 11:04:30;;;;;;;10.13;2.13;;;;;;;10.42;100.00;101022.75;5092847;28;20072;-82
2024/03/23 11:06:55;;;;;;;11.90;2.33;;;;;;;11.96;100.00;101010.75;5074693;28;20038;-79
2024/03/23 11:09:41;;;;;;;12.23;2.00;;;;;;;13.32;100.00;101011.03;5074744;28;20055;-78
2024/03/23 11:12:36;;;;;;;10.05;2.45;;;;;;;13.58;100.00;101021.81;5093657;28;20376;-79
2024/03/23 11:15:10;;;;;;;18.88;2.00;;;;;;;14.05;100.00;101023.34;5071108;28;20043;-77